Flight Track Log - Related Links

Times and Time Zones

All times are in EDT time to prevent confusion due to time zone crossing. See the N77VZ flight status page for this flight to view local times or setup timezone preferences in your user account.

Time Position Orientation Groundspeed Altitude Reporting Facility
EDT Latitude Longitude Course Direction KTS km/h feet Rate Location/Type
Fri 16:15:24 26.0869 -81.7281 336° Northwest 273 505 31.000  Level Miami Center
Fri 16:16:24 26.0989 -81.8072 280° West 275 509 8.600 -10.350 Descending Miami Center
Fri 16:17:24 26.1192 -81.8867 286° West 275 509 10.300 1.750 Climbing Miami Center
Fri 16:18:24 26.1372 -81.9706 283° West 280 518 12.100 1.800 Climbing Miami Center
Fri 16:19:00 26.6845 -81.7342 336° Northwest  Level Estimated
Fri 16:19:24 26.1550 -82.0592 283° West 288 533 13.900  Level Miami Center
Fri 16:20:24 26.1725 -82.1481 282° West 293 542 15.400 1.500 Climbing Miami Center
Fri 16:21:24 26.2244 -82.2128 312° West 290 538 16.900 1.500 Climbing Miami Center
Fri 16:22:24 26.3025 -82.2533 335° Northwest 291 539 18.400 1.350 Climbing Miami Center
Fri 16:23:24 26.3781 -82.2917 336° Northwest 297 550 19.600 1.250 Climbing Miami Center
Fri 16:24:24 26.4561 -82.3322 335° Northwest 302 560 20.900 1.350 Climbing Miami Center
Fri 16:25:24 26.5358 -82.3708 337° Northwest 302 560 22.300 1.400 Climbing Miami Center
Fri 16:26:24 26.6136 -82.4139 334° Northwest 307 568 23.700 1.400 Climbing Miami Center
Fri 16:27:24 26.6914 -82.4525 336° Northwest 307 568 25.100 1.400 Climbing Miami Center
Fri 16:28:24 26.7692 -82.4933 335° Northwest 307 568 26.500 1.400 Climbing Miami Center
Fri 16:29:24 26.8428 -82.5317 335° Northwest 307 568 27.900 1.400 Climbing Miami Center
Fri 16:30:24 26.9183 -82.5728 334° Northwest 296 549 29.300 1.050 Climbing Miami Center
Fri 16:31:24 26.9922 -82.6089 336° Northwest 296 549 30.000 350 Climbing Miami Center
Fri 16:32:24 27.0758 -82.6528 335° Northwest 309 573 30.000  Level Miami Center
Fri 16:33:24 27.1617 -82.6989 334° Northwest 322 597 30.000  Level Miami Center
Fri 16:34:24 27.2494 -82.7453 335° Northwest 334 618 30.000  Level Miami Center
Fri 16:35:24 27.3475 -82.7972 335° Northwest 343 636 30.000  Level Miami Center
Fri 16:37:28 27.5386 -82.8481 347° North 350 649 30.000  Level Jacksonville Center
Fri 16:38:28 27.6389 -82.8317 North 350 649 30.000  Level Jacksonville Center
Fri 16:39:28 27.7389 -82.8200 North 356 660 30.000  Level Jacksonville Center
Fri 16:40:28 27.8389 -82.8081 North 356 660 30.000  Level Jacksonville Center
Fri 16:41:28 27.9392 -82.7964 North 356 660 30.000  Level Jacksonville Center
Fri 16:42:28 28.0372 -82.7844 North 356 660 30.000  Level Jacksonville Center
Fri 16:43:28 28.1372 -82.7703 North 356 660 30.000  Level Jacksonville Center
Fri 16:44:28 28.2397 -82.7583 North 356 660 30.000  Level Jacksonville Center
Fri 16:45:28 28.3336 -82.7464 North 351 650 30.000  Level Jacksonville Center
Fri 16:46:28 28.4317 -82.7556 355° North 351 650 30.000 -50 Level Jacksonville Center
Fri 16:47:28 28.5256 -82.7839 345° North 345 639 29.900 -50 Descending Jacksonville Center
Fri 16:48:28 28.6214 -82.7814 North 345 639 29.900 50 Level Jacksonville Center
Fri 16:49:28 28.7300 -82.7647 North 350 649 30.000  Climbing Jacksonville Center
Fri 16:50:28 28.8261 -82.7528 North 350 649 29.900  Descending Jacksonville Center
Fri 16:51:28 28.9242 -82.7408 North 350 649 30.000 50 Climbing Jacksonville Center
Fri 16:52:28 29.0200 -82.7286 North 350 649 30.000  Level Jacksonville Center
Fri 16:53:28 29.1203 -82.7167 North 350 649 30.000  Level Jacksonville Center
Fri 16:54:28 29.2164 -82.7047 North 350 649 30.000  Level Jacksonville Center
Fri 16:55:28 29.3164 -82.6950 North 350 649 30.000  Level Jacksonville Center
Fri 16:56:28 29.4144 -82.6828 North 350 649 30.000  Level Jacksonville Center
Fri 16:57:28 29.5042 -82.6756 North 350 649 30.000 50 Level Jacksonville Center
Fri 16:58:28 29.6003 -82.6633 North 350 649 30.100 300 Climbing Jacksonville Center
Fri 16:59:28 29.7006 -82.6536 North 350 649 30.600 400 Climbing Jacksonville Center
Fri 17:00:28 29.8047 -82.6342 North 342 634 30.900 200 Climbing Jacksonville Center
Fri 17:01:28 29.9031 -82.6219 North 347 642 31.000 50 Climbing Jacksonville Center
Fri 17:02:28 29.9947 -82.6144 North 352 652 31.000 -50 Level Jacksonville Center
Fri 17:03:28 30.0928 -82.6069 North 352 652 30.900  Descending Jacksonville Center
Fri 17:04:28 30.1931 -82.5922 North 352 652 31.000 50 Climbing Jacksonville Center
Fri 17:05:28 30.2953 -82.5797 North 352 652 31.000  Level Jacksonville Center
Fri 17:06:28 30.3956 -82.5675 North 352 652 31.000  Level Jacksonville Center
Fri 17:07:28 30.4958 -82.5550 North 352 652 31.000  Level Jacksonville Center
Fri 17:08:28 30.5981 -82.5425 North 352 652 31.000 -50 Level Jacksonville Center
Fri 17:09:28 30.6983 -82.5278 North 352 652 30.900  Descending Jacksonville Center
Fri 17:10:28 30.8089 -82.5153 North 357 661 31.000 50 Climbing Jacksonville Center
Fri 17:11:28 30.9111 -82.5028 North 357 661 31.000  Level Jacksonville Center
Fri 17:12:28 31.0133 -82.4878 North 367 679 31.000  Level Jacksonville Center
Fri 17:13:28 31.1156 -82.4753 North 367 679 31.000  Level Jacksonville Center
Fri 17:14:28 31.2178 -82.4603 North 367 679 31.000 -50 Level Jacksonville Center
Fri 17:15:28 31.3203 -82.4475 North 367 679 30.900  Descending Jacksonville Center
Fri 17:18:29 31.6147 -82.4075 North 354 655 31.000 25 Climbing Atlanta Center
Fri 17:19:29 31.7128 -82.3933 North 341 631 31.000  Level Atlanta Center
Fri 17:20:29 31.8106 -82.3794 North 341 631 31.000  Level Atlanta Center
Fri 17:21:29 31.9128 -82.3678 North 347 642 31.000  Level Atlanta Center
Fri 17:22:29 32.0128 -82.3536 North 339 628 31.000  Level Atlanta Center
Fri 17:23:29 32.1128 -82.3394 North 351 650 31.000  Level Atlanta Center
Fri 17:24:29 32.2106 -82.3278 North 356 660 31.000  Level Atlanta Center
Fri 17:25:29 32.3189 -82.3111 North 356 660 31.000  Level Atlanta Center
Fri 17:26:29 32.4167 -82.2967 North 350 649 31.000  Level Atlanta Center
Fri 17:27:29 32.5189 -82.2825 North 350 649 31.000  Level Atlanta Center
Fri 17:28:29 32.6189 -82.2706 North 350 649 31.000  Level Atlanta Center
Fri 17:29:29 32.7167 -82.2564 North 350 649 31.000  Level Atlanta Center
Fri 17:30:29 32.8083 -82.2422 North 355 658 31.000  Level Atlanta Center
Fri 17:31:29 32.9042 -82.2303 North 355 658 31.000  Level Atlanta Center
Fri 17:32:29 33.0022 -82.2158 North 350 649 31.000  Level Atlanta Center
Fri 17:33:29 33.1042 -82.2014 North 350 649 31.000  Level Atlanta Center
Fri 17:34:29 33.2022 -82.1892 North 350 649 31.000 -150 Level Atlanta Center
Fri 17:35:29 33.3042 -82.1722 North 350 649 30.700 -650 Descending Atlanta Center
Fri 17:36:29 33.4042 -82.1575 North 350 649 29.700 -950 Descending Atlanta Center
Fri 17:37:29 33.5042 -82.1456 North 350 649 28.800 -950 Descending Atlanta Center
Fri 17:38:29 33.6061 -82.1308 North 355 658 27.800 -950 Descending Atlanta Center
Fri 17:39:29 33.7103 -82.1158 North 367 679 26.900 -1.000 Descending Atlanta Center
Fri 17:40:29 33.8228 -82.1008 North 367 679 25.800 -1.000 Descending Atlanta Center
Fri 17:41:29 33.9269 -82.0836 North 367 679 24.900 -900 Descending Atlanta Center
Fri 17:42:29 34.0289 -82.0711 North 367 679 24.000 -450 Descending Atlanta Center
Fri 17:43:29 34.1289 -82.0564 North 367 679 24.000 -400 Level Atlanta Center
Fri 17:44:29 34.2289 -82.0414 North 362 671 23.200 -850 Descending Atlanta Center
Fri 17:45:29 34.3133 -81.9842 29° Northeast 348 644 22.300 -950 Descending Atlanta Center
Fri 17:46:29 34.3981 -81.9267 29° Northeast 348 644 21.300 -1.000 Descending Atlanta Center
Fri 17:47:29 34.4847 -81.8639 31° Northeast 348 644 20.300 -950 Descending Atlanta Center
Fri 17:48:29 34.5628 -81.8089 30° Northeast 343 636 19.400 -1.000 Descending Atlanta Center
Fri 17:49:29 34.6475 -81.7561 27° Northeast 333 616 18.300 -1.000 Descending Atlanta Center
Fri 17:50:29 34.7297 -81.6958 31° Northeast 333 616 17.400 -909 Descending Atlanta Center
Fri 17:51:08 34.7833 -81.6564 31° Northeast 343 636 16.800 -1.000 Descending Atlanta Center
Fri 17:51:29 34.8081 -81.6381 31° Northeast 326 604 16.400 -973 Descending Atlanta Center
Fri 17:51:45 34.8306 -81.6222 30° Northeast 329 610 16.200 -1.000 Descending Atlanta Center
Fri 17:52:29 34.8864 -81.5850 29° Northeast 321 594 15.400 -984 Descending Atlanta Center
Fri 17:52:46 34.9089 -81.5692 30° Northeast 315 583 15.200 -800 Descending Atlanta Center
Fri 17:53:29 34.9561 -81.5350 31° Northeast 315 583 14.600 -984 Descending Atlanta Center
Fri 17:53:47 34.9869 -81.5136 30° Northeast 318 589 14.200 -1.200 Descending Atlanta Center
Fri 17:54:29 35.0322 -81.4819 30° Northeast 315 583 13.400 -1.600 Descending Atlanta Center
Fri 17:54:47 35.0611 -81.4581 34° Northeast 316 586 12.600 -1.900 Descending Atlanta Center
Fri 17:55:29 35.1064 -81.4314 26° Northeast 310 575 11.500 -1.869 Descending Atlanta Center
Fri 17:55:48 35.1328 -81.4025 42° Northeast 303 562 10.700 -2.000 Descending Atlanta Center
Fri 17:56:29 35.1739 -81.3733 30° Northeast 297 550 9.500 -1.964 Descending Atlanta Center
Fri 17:56:43 35.1967 -81.3650 17° North 281 520 8.900 -2.000 Descending Atlanta Center
Fri 17:57:29 35.2442 -81.3356 27° Northeast 271 502 7.500 -1.701 Descending Atlanta Center
Fri 17:57:50 35.2728 -81.3142 31° Northeast 252 467 7.000 -900 Descending Atlanta Center
Fri 17:58:29 35.3036 -81.2928 30° Northeast 257 476 6.600 -590 Descending Atlanta Center
Fri 17:58:51 35.3364 -81.2689 31° Northeast 256 475 6.400 -500 Descending Atlanta Center
Fri 17:59:29 35.3653 -81.2500 28° Northeast 277 513 6.100 -590 Descending Atlanta Center
Fri 17:59:52 35.4000 -81.2208 34° Northeast 280 518 5.800 -800 Descending Atlanta Center
Fri 18:00:29 35.4308 -81.1994 29° Northeast 247 457 5.300 -787 Descending Atlanta Center
Fri 18:00:53 35.4617 -81.1778 30° Northeast 245 454 5.000 -700 Descending Atlanta Center
Fri 18:01:29 35.5006 -81.1458 34° Northeast 246 455 4.600 -787 Descending Atlanta Center
Fri 18:01:54 35.5211 -81.1350 23° Northeast 250 463 4.200 -800 Descending Atlanta Center
Fri 18:02:29 35.5539 -81.1108 31° Northeast 274 507 3.800 -800 Descending Atlanta Center
Fri 18:02:54 35.5889 -81.0867 29° Northeast 263 488 3.400 -500 Descending Atlanta Center
Fri 18:03:29 35.6156 -81.0653 33° Northeast 252 467 3.300 -171 Descending Atlanta Center

Login

Don't have an account? Register now (free) for customized features, flight alerts, and more!